This is the latest recevied weather packets stored in our database for station/object eb1ayw-13. If no packets are shown the sender has not sent any weather packets the latest 10 day(s).
| Time | Temp. | Humidity | Pressure | Rain* | Wind** | Luminosity | Snow |
|---|---|---|---|---|---|---|---|
| 1777506056 | 50.56° C | 13% | 999.2 hPa | - | - | - | - |
| 1777505456 | 49.44° C | 14% | 999.5 hPa | - | - | - | - |
| 1777504856 | 51.67° C | 13% | 998.8 hPa | - | - | - | - |
| 1777504256 | 50.56° C | 13% | 999 hPa | - | - | - | - |
| 1777503656 | 51.11° C | 13% | 998.9 hPa | - | - | - | - |
| 1777503056 | 50.56° C | 13% | 998.8 hPa | - | - | - | - |
| 1777502456 | 52.78° C | 12% | 998.4 hPa | - | - | - | - |
| 1777501856 | 50.56° C | 13% | 998.8 hPa | - | - | - | - |
| 1777501256 | 46.11° C | 16% | 999.8 hPa | - | - | - | - |
| 1777500656 | 43.89° C | 16% | 1000.1 hPa | - | - | - | - |
| 1777500056 | 47.22° C | 15% | 999.4 hPa | - | - | - | - |
| 1777499456 | 49.44° C | 14% | 998.7 hPa | - | - | - | - |
| 1777498859 | 49.44° C | 14% | 998.7 hPa | - | - | - | - |
| 1777498256 | 48.33° C | 14% | 998.9 hPa | - | - | - | - |
| 1777497656 | 50.56° C | 14% | 998.5 hPa | - | - | - | - |
| 1777497056 | 46.11° C | 16% | 999.3 hPa | - | - | - | - |
| 1777495674 | 48.89° C | 15% | 998.2 hPa | - | - | - | - |
| 1777495074 | 50° C | 14% | 997.8 hPa | - | - | - | - |
| 1777494474 | 46.11° C | 17% | 998.4 hPa | - | - | - | - |
| 1777493874 | 48.89° C | 15% | 997.7 hPa | - | - | - | - |
| 1777493274 | 48.33° C | 15% | 997.6 hPa | - | - | - | - |
| 1777492674 | 47.78° C | 15% | 997.4 hPa | - | - | - | - |
| 1777492074 | 52.22° C | 13% | 996.2 hPa | - | - | - | - |
| 1777491474 | 50° C | 14% | 996.7 hPa | - | - | - | - |
| 1777490874 | 49.44° C | 14% | 996.4 hPa | - | - | - | - |
* Rain since midnight (hover to see other rain measurements)
** Current wind speed in m/s (hover to see current wind gust speed)